Time;durP1;ratioP1;P1;durP2;ratioP2;P2;SDS_P1;SDS_P2;PMS_P1;PMS_P2;Temp;Humidity;BMP_temperature;BMP_pressure;BME280_temperature;BME280_humidity;BME280_pressure;Samples;Min_cycle;Max_cycle;Signal;HPM_P1;HPM_P2
2022/06/16 00:01:55;;;;;;;3.63;1.90;;;14.50;99.90;;;;;;4933337;28;20228;-46
2022/06/16 00:04:23;;;;;;;3.10;1.90;;;14.50;99.90;;;;;;4934369;29;20240;-44
2022/06/16 00:06:53;;;;;;;5.30;2.63;;;14.40;99.90;;;;;;4935314;29;20327;-45
2022/06/16 00:09:22;;;;;;;3.77;2.20;;;14.40;99.90;;;;;;4934903;29;20240;-44
2022/06/16 00:11:50;;;;;;;3.30;1.93;;;14.40;99.90;;;;;;4932883;29;20228;-45
2022/06/16 00:14:19;;;;;;;5.07;2.27;;;14.40;99.90;;;;;;4934625;29;20731;-45
2022/06/16 00:16:48;;;;;;;2.73;2.07;;;14.40;99.90;;;;;;4934891;29;20320;-45
2022/06/16 00:19:16;;;;;;;5.87;2.37;;;14.40;99.90;;;;;;4934784;29;20668;-45
2022/06/16 00:21:44;;;;;;;5.10;2.30;;;14.40;99.90;;;;;;4933272;29;20249;-44
2022/06/16 00:24:12;;;;;;;4.80;2.23;;;14.40;99.90;;;;;;4934662;29;20381;-45
2022/06/16 00:26:40;;;;;;;3.73;2.03;;;14.30;99.90;;;;;;4934907;29;20262;-45
2022/06/16 00:29:09;;;;;;;5.33;2.57;;;14.30;99.90;;;;;;4934711;29;20220;-45
2022/06/16 00:31:38;;;;;;;3.13;1.93;;;14.20;99.90;;;;;;4932862;28;20240;-45
2022/06/16 00:34:07;;;;;;;2.23;1.70;;;14.20;99.90;;;;;;4933947;29;20307;-46
2022/06/16 00:36:37;;;;;;;3.60;2.00;;;14.20;99.90;;;;;;4935009;29;20227;-45
2022/06/16 00:39:05;;;;;;;3.70;1.80;;;14.20;99.90;;;;;;4938010;29;20224;-44
2022/06/16 00:41:34;;;;;;;2.40;1.77;;;14.20;99.90;;;;;;4936444;29;20236;-45
2022/06/16 00:44:02;;;;;;;3.50;2.10;;;14.20;99.90;;;;;;4937275;29;20275;-46
2022/06/16 00:46:30;;;;;;;3.13;2.00;;;14.30;99.90;;;;;;4928746;29;20228;-45
2022/06/16 00:49:04;;;;;;;3.37;2.17;;;14.30;99.90;;;;;;4937745;29;20217;-46
2022/06/16 00:51:38;;;;;;;4.90;2.23;;;14.40;99.90;;;;;;4936042;29;20238;-44
2022/06/16 00:54:11;;;;;;;3.27;2.17;;;14.30;99.90;;;;;;4937537;29;20231;-46
2022/06/16 00:56:39;;;;;;;2.93;1.97;;;14.30;99.90;;;;;;4937513;29;20619;-45
2022/06/16 00:59:08;;;;;;;3.63;2.33;;;14.30;99.90;;;;;;4928345;29;20315;-45
2022/06/16 01:01:39;;;;;;;3.80;2.20;;;14.30;99.90;;;;;;4933232;29;20247;-44
2022/06/16 01:06:55;;;;;;;3.73;2.33;;;14.20;99.90;;;;;;4937411;29;20227;-45
2022/06/16 01:09:27;;;;;;;4.07;2.00;;;14.30;99.90;;;;;;4937463;29;20255;-45
2022/06/16 01:15:24;;;;;;;3.03;2.20;;;14.20;99.90;;;;;;4937256;29;20227;-46
2022/06/16 01:17:58;;;;;;;3.10;2.20;;;14.20;99.90;;;;;;4937265;29;20228;-44
2022/06/16 01:20:38;;;;;;;4.13;2.23;;;14.20;99.90;;;;;;4937078;29;20231;-45
2022/06/16 01:23:50;;;;;;;4.10;2.27;;;14.20;99.90;;;;;;4927010;29;20227;-45
2022/06/16 01:26:42;;;;;;;3.23;2.27;;;14.20;99.90;;;;;;4927182;29;20228;-45
2022/06/16 01:29:18;;;;;;;3.30;2.60;;;14.20;99.90;;;;;;4936937;29;20255;-45
2022/06/16 01:31:56;;;;;;;2.70;2.27;;;14.10;99.90;;;;;;4932263;29;20590;-45
2022/06/16 01:34:36;;;;;;;2.97;2.20;;;14.10;99.90;;;;;;4927714;29;20228;-44
2022/06/16 01:37:12;;;;;;;4.80;2.73;;;14.10;99.90;;;;;;4927229;29;20681;-45
2022/06/16 01:39:49;;;;;;;3.20;2.40;;;14.10;99.90;;;;;;4920031;29;20232;-44
2022/06/16 01:42:23;;;;;;;3.60;2.53;;;14.10;99.90;;;;;;4924039;29;20223;-44
2022/06/16 01:45:00;;;;;;;3.47;2.37;;;14.00;99.90;;;;;;4927614;29;20226;-45
2022/06/16 01:47:31;;;;;;;3.17;2.10;;;14.00;99.90;;;;;;4926024;29;20318;-45
2022/06/16 01:50:06;;;;;;;3.23;2.70;;;13.90;99.90;;;;;;4919149;29;20235;-46
2022/06/16 01:52:38;;;;;;;5.33;2.97;;;13.90;99.90;;;;;;4935277;29;20230;-45
2022/06/16 01:55:11;;;;;;;3.07;2.73;;;13.90;99.90;;;;;;4927269;29;20262;-45
2022/06/16 01:57:45;;;;;;;4.47;2.50;;;14.00;99.90;;;;;;4927442;29;20700;-45
2022/06/16 02:00:18;;;;;;;3.57;2.50;;;14.00;99.90;;;;;;4920789;29;20239;-44
2022/06/16 02:02:52;;;;;;;4.03;2.57;;;14.00;99.90;;;;;;4931407;29;20263;-45
2022/06/16 02:05:25;;;;;;;3.73;2.57;;;14.00;99.90;;;;;;4921142;29;20268;-44
2022/06/16 02:07:57;;;;;;;4.27;2.73;;;14.00;99.90;;;;;;4936470;29;20228;-46
2022/06/16 02:10:30;;;;;;;2.93;2.50;;;14.00;99.90;;;;;;4912840;29;20274;-46
2022/06/16 02:13:04;;;;;;;2.50;2.30;;;14.00;99.90;;;;;;4927016;29;20258;-44
2022/06/16 02:15:55;;;;;;;4.10;2.70;;;14.00;99.90;;;;;;4926812;29;20650;-46
2022/06/16 02:18:26;;;;;;;2.37;2.10;;;14.00;99.90;;;;;;4926768;29;20692;-45
2022/06/16 02:21:01;;;;;;;2.77;2.30;;;13.90;99.90;;;;;;4935930;29;20224;-46
2022/06/16 02:23:30;;;;;;;4.50;2.70;;;13.90;99.90;;;;;;4934930;29;20240;-46
2022/06/16 02:25:59;;;;;;;2.90;2.60;;;13.80;99.90;;;;;;4923643;29;20263;-44
2022/06/16 02:28:28;;;;;;;3.53;2.80;;;13.90;99.90;;;;;;4930472;29;20242;-45
2022/06/16 02:31:12;;;;;;;3.13;2.73;;;13.80;99.90;;;;;;4935610;29;20224;-46
2022/06/16 02:33:50;;;;;;;3.33;2.70;;;13.80;99.90;;;;;;4932966;29;20587;-46
2022/06/16 02:36:30;;;;;;;3.73;2.77;;;13.80;99.90;;;;;;4935412;29;20263;-44
2022/06/16 02:39:11;;;;;;;4.57;3.17;;;13.80;99.90;;;;;;4936079;29;20235;-45
2022/06/16 02:41:48;;;;;;;3.07;2.33;;;13.70;99.90;;;;;;4934269;29;20240;-45
2022/06/16 02:44:27;;;;;;;3.83;2.70;;;13.80;99.90;;;;;;4935355;29;20227;-45
2022/06/16 02:47:03;;;;;;;4.97;2.90;;;13.70;99.90;;;;;;4935644;29;20722;-45
2022/06/16 02:49:40;;;;;;;4.20;2.67;;;13.70;99.90;;;;;;4933558;29;20591;-45
2022/06/16 02:52:17;;;;;;;3.03;2.70;;;13.70;99.90;;;;;;4917702;29;20227;-44
2022/06/16 02:54:54;;;;;;;3.67;2.60;;;13.80;99.90;;;;;;4926375;29;20275;-44
2022/06/16 02:57:30;;;;;;;4.07;3.30;;;13.70;99.90;;;;;;4935205;29;20226;-45
2022/06/16 03:00:07;;;;;;;3.87;3.30;;;13.60;99.90;;;;;;4923532;29;20227;-44
2022/06/16 03:02:41;;;;;;;4.07;3.33;;;13.60;99.90;;;;;;4920209;29;20321;-44
2022/06/16 03:05:11;;;;;;;4.80;3.47;;;13.50;99.90;;;;;;4922392;29;20235;-45
2022/06/16 03:07:41;;;;;;;5.30;2.90;;;13.50;99.90;;;;;;4925991;29;20699;-46
2022/06/16 03:13:06;;;;;;;5.47;3.10;;;13.60;99.90;;;;;;4927183;29;20355;-45
2022/06/16 03:15:34;;;;;;;3.73;3.00;;;13.60;99.90;;;;;;4932871;29;20232;-45
2022/06/16 03:18:04;;;;;;;5.43;3.40;;;13.60;99.90;;;;;;4935022;29;20302;-44
2022/06/16 03:20:32;;;;;;;4.53;3.27;;;13.60;99.90;;;;;;4935648;29;20226;-45
2022/06/16 03:23:02;;;;;;;4.00;3.30;;;13.60;99.90;;;;;;4925325;29;20216;-45
2022/06/16 03:25:31;;;;;;;5.30;3.43;;;13.50;99.90;;;;;;4932388;29;20237;-44
2022/06/16 03:27:59;;;;;;;4.03;3.13;;;13.50;99.90;;;;;;4922706;29;20251;-45
2022/06/16 03:30:31;;;;;;;5.43;3.27;;;13.50;99.90;;;;;;4920115;29;20263;-45
2022/06/16 03:33:00;;;;;;;5.57;3.27;;;13.50;99.90;;;;;;4922940;29;20239;-46
2022/06/16 03:35:30;;;;;;;4.27;2.87;;;13.50;99.90;;;;;;4917307;29;20314;-44
2022/06/16 03:38:00;;;;;;;5.17;3.70;;;13.50;99.90;;;;;;4926017;29;20224;-46
2022/06/16 03:40:28;;;;;;;4.60;3.50;;;13.50;99.90;;;;;;4935336;29;20220;-45
2022/06/16 03:42:56;;;;;;;4.90;3.40;;;13.40;99.90;;;;;;4928957;29;20630;-45
2022/06/16 03:45:28;;;;;;;4.77;3.07;;;13.40;99.90;;;;;;4929651;29;20235;-45
2022/06/16 03:47:56;;;;;;;3.60;2.90;;;13.50;99.90;;;;;;4926029;29;20227;-45
2022/06/16 03:50:24;;;;;;;4.03;3.00;;;13.50;99.90;;;;;;4930877;29;20262;-45
2022/06/16 03:52:56;;;;;;;4.50;3.10;;;13.50;99.90;;;;;;4924873;29;20259;-45
2022/06/16 03:55:25;;;;;;;4.63;3.43;;;13.50;99.90;;;;;;4932176;29;20709;-44
2022/06/16 03:57:54;;;;;;;4.20;3.23;;;13.50;99.90;;;;;;4919778;29;20224;-44
2022/06/16 04:00:23;;;;;;;5.20;3.00;;;13.50;99.90;;;;;;4920248;29;20640;-45
2022/06/16 04:05:49;;;;;;;5.03;3.00;;;13.50;99.90;;;;;;4920513;29;20226;-45
2022/06/16 04:08:19;;;;;;;5.37;2.90;;;13.50;99.90;;;;;;4933625;29;20643;-45
2022/06/16 04:10:49;;;;;;;4.17;2.90;;;13.60;99.90;;;;;;4916050;29;20238;-44
2022/06/16 04:13:18;;;;;;;4.83;3.23;;;13.60;99.90;;;;;;4936060;29;20447;-45
2022/06/16 04:15:54;;;;;;;6.10;3.33;;;13.60;99.90;;;;;;4915425;29;20732;-45
2022/06/16 04:18:24;;;;;;;4.80;3.37;;;13.60;99.90;;;;;;4921293;29;20271;-44
2022/06/16 04:20:52;;;;;;;5.90;3.40;;;13.60;99.90;;;;;;4920890;29;20580;-45
2022/06/16 04:23:45;;;;;;;3.30;2.90;;;13.60;99.90;;;;;;4931255;29;20231;-45
2022/06/16 04:26:15;;;;;;;4.80;3.33;;;13.60;99.90;;;;;;4924001;29;20224;-45
2022/06/16 04:28:47;;;;;;;4.33;3.10;;;13.70;99.90;;;;;;4929102;29;20244;-44
2022/06/16 04:31:18;;;;;;;4.47;2.97;;;13.70;99.90;;;;;;4918704;29;20239;-46
2022/06/16 04:33:47;;;;;;;4.87;3.20;;;13.70;99.90;;;;;;4929155;29;20239;-44
2022/06/16 04:36:15;;;;;;;6.57;3.40;;;13.70;99.90;;;;;;4927948;29;20242;-44
2022/06/16 04:38:55;;;;;;;4.00;3.40;;;13.70;99.90;;;;;;4937036;29;20223;-45
2022/06/16 04:41:24;;;;;;;6.10;3.43;;;13.70;99.90;;;;;;4919274;29;20232;-45
2022/06/16 04:43:53;;;;;;;6.73;3.60;;;13.80;99.90;;;;;;4920878;29;20251;-45
2022/06/16 04:46:23;;;;;;;4.90;3.23;;;13.80;99.90;;;;;;4926859;29;20250;-45
2022/06/16 04:48:53;;;;;;;8.23;3.47;;;13.80;99.90;;;;;;4922529;29;20692;-45
2022/06/16 04:51:21;;;;;;;4.60;3.63;;;13.90;99.90;;;;;;4930729;29;20733;-45
2022/06/16 04:53:52;;;;;;;5.73;3.43;;;13.90;99.90;;;;;;4928647;29;20235;-46
2022/06/16 04:56:45;;;;;;;5.77;3.50;;;14.00;99.90;;;;;;4918966;29;20240;-46
2022/06/16 04:59:28;;;;;;;5.53;3.50;;;14.00;99.90;;;;;;4926559;29;20233;-45
2022/06/16 05:02:17;;;;;;;5.33;3.70;;;14.10;99.90;;;;;;4935600;29;20599;-45
2022/06/16 05:05:04;;;;;;;4.13;3.20;;;14.10;99.90;;;;;;4936961;29;20239;-44
2022/06/16 05:07:50;;;;;;;6.37;3.60;;;14.20;99.90;;;;;;4922787;29;20586;-45
2022/06/16 05:10:39;;;;;;;4.57;3.27;;;14.40;99.90;;;;;;4918757;29;20232;-47
2022/06/16 05:13:24;;;;;;;4.13;3.10;;;14.40;99.90;;;;;;4935511;28;20236;-46
2022/06/16 05:16:07;;;;;;;5.63;3.20;;;14.50;99.90;;;;;;4919843;29;20700;-46
2022/06/16 05:18:50;;;;;;;5.43;3.00;;;14.50;99.90;;;;;;4912634;29;20235;-46
2022/06/16 05:21:39;;;;;;;4.77;3.13;;;14.60;99.90;;;;;;4920066;29;20224;-47
2022/06/16 05:24:22;;;;;;;6.00;3.30;;;14.70;99.90;;;;;;4920282;29;20290;-45
2022/06/16 05:27:04;;;;;;;5.10;3.23;;;14.80;99.90;;;;;;4936924;29;20222;-46
2022/06/16 05:29:41;;;;;;;4.70;3.80;;;15.00;99.90;;;;;;4932717;29;20236;-45
2022/06/16 05:32:20;;;;;;;6.40;3.17;;;15.30;99.90;;;;;;4931417;29;20389;-45
2022/06/16 05:35:13;;;;;;;6.60;3.07;;;15.60;99.90;;;;;;4904517;29;20259;-45
2022/06/16 05:37:52;;;;;;;5.50;2.73;;;16.10;99.90;;;;;;4919793;29;20322;-46
2022/06/16 05:40:31;;;;;;;7.23;2.67;;;16.20;99.90;;;;;;4936434;29;20323;-46
2022/06/16 05:43:26;;;;;;;5.67;3.23;;;16.00;99.90;;;;;;4932130;29;20243;-46
2022/06/16 05:46:17;;;;;;;5.47;2.73;;;16.00;99.90;;;;;;4937103;29;20238;-47
2022/06/16 05:48:56;;;;;;;4.93;2.60;;;15.90;99.90;;;;;;4927151;29;20719;-45
2022/06/16 05:51:24;;;;;;;3.90;2.30;;;15.80;99.90;;;;;;4918283;29;20587;-46
2022/06/16 05:54:12;;;;;;;4.20;2.60;;;15.80;99.90;;;;;;4923723;29;20224;-46
2022/06/16 05:56:44;;;;;;;5.50;2.70;;;16.00;99.90;;;;;;4919480;29;20787;-47
2022/06/16 05:59:14;;;;;;;7.13;2.70;;;16.20;99.90;;;;;;4928078;29;20712;-46
2022/06/16 06:01:47;;;;;;;5.73;2.87;;;16.50;99.90;;;;;;4912176;29;20220;-46
2022/06/16 06:04:17;;;;;;;8.30;3.00;;;16.80;99.90;;;;;;4936348;29;20236;-46
2022/06/16 06:06:45;;;;;;;5.87;2.70;;;17.10;99.90;;;;;;4919629;29;20733;-46
2022/06/16 06:17:40;;;;;;;6.37;2.40;;;17.90;99.90;;;;;;4926754;29;20235;-46
2022/06/16 06:20:11;;;;;;;6.40;2.10;;;18.10;99.90;;;;;;4927178;29;20233;-47
2022/06/16 06:22:43;;;;;;;4.60;2.30;;;18.30;99.90;;;;;;4919444;29;20263;-43
2022/06/16 06:25:15;;;;;;;5.20;2.23;;;18.50;99.90;;;;;;4924454;29;20236;-45
2022/06/16 06:27:46;;;;;;;4.40;2.20;;;18.80;99.90;;;;;;4926267;29;20221;-46
2022/06/16 06:30:18;;;;;;;4.07;2.20;;;18.80;99.90;;;;;;4935875;29;20614;-46
2022/06/16 06:32:48;;;;;;;3.80;2.00;;;19.00;99.90;;;;;;4930239;29;20357;-46
2022/06/16 06:35:18;;;;;;;2.87;2.07;;;19.20;99.90;;;;;;4921855;29;20659;-44
2022/06/16 06:37:46;;;;;;;3.70;1.57;;;19.30;99.90;;;;;;4935820;29;20225;-46
2022/06/16 06:40:19;;;;;;;7.23;2.10;;;19.50;99.90;;;;;;4923637;29;20221;-46
2022/06/16 06:42:47;;;;;;;6.07;1.70;;;19.60;99.90;;;;;;4934157;29;20217;-46
2022/06/16 06:45:16;;;;;;;4.17;1.50;;;19.50;99.90;;;;;;4918735;29;20233;-45
2022/06/16 06:47:45;;;;;;;1.90;1.40;;;19.90;99.90;;;;;;4935959;29;20638;-46
2022/06/16 06:50:20;;;;;;;2.97;1.70;;;19.90;99.90;;;;;;4935883;29;20700;-46
2022/06/16 06:52:48;;;;;;;3.07;1.70;;;19.80;99.90;;;;;;4934336;29;20280;-45
2022/06/16 06:55:17;;;;;;;3.30;1.80;;;19.70;99.90;;;;;;4935531;29;20231;-45
2022/06/16 06:57:45;;;;;;;3.47;1.60;;;19.40;99.90;;;;;;4935303;29;20261;-45
2022/06/16 07:00:16;;;;;;;5.27;1.47;;;19.10;99.90;;;;;;4935402;29;20292;-47
2022/06/16 07:02:44;;;;;;;5.07;1.60;;;19.20;99.90;;;;;;4933431;29;20313;-44
2022/06/16 07:05:13;;;;;;;5.87;1.40;;;19.30;99.90;;;;;;4933038;29;20230;-46
2022/06/16 07:07:48;;;;;;;2.80;1.10;;;19.50;99.90;;;;;;4924308;29;20266;-46
2022/06/16 07:10:19;;;;;;;3.47;1.33;;;19.70;99.90;;;;;;4929133;29;20241;-46
2022/06/16 07:12:47;;;;;;;2.03;0.90;;;19.80;99.90;;;;;;4925142;29;20468;-46
2022/06/16 07:15:15;;;;;;;3.20;1.20;;;20.30;99.90;;;;;;4930036;29;21110;-46
2022/06/16 07:17:43;;;;;;;3.63;1.33;;;20.40;99.90;;;;;;4924011;29;20241;-47
2022/06/16 07:20:15;;;;;;;2.83;1.10;;;20.60;99.90;;;;;;4926007;29;20297;-46
2022/06/16 07:22:44;;;;;;;3.43;1.13;;;20.90;99.90;;;;;;4924891;29;20267;-47
2022/06/16 07:25:14;;;;;;;2.17;1.03;;;21.20;99.90;;;;;;4925536;29;20246;-48
2022/06/16 07:27:43;;;;;;;3.80;1.20;;;21.40;99.90;;;;;;4922734;29;20310;-46
2022/06/16 07:30:16;;;;;;;2.70;1.30;;;21.70;99.90;;;;;;4925376;29;20250;-46
2022/06/16 07:32:46;;;;;;;3.87;1.10;;;21.60;99.90;;;;;;4923754;29;20235;-46
2022/06/16 07:35:16;;;;;;;2.27;1.10;;;21.90;99.90;;;;;;4925771;29;20242;-46
2022/06/16 07:37:44;;;;;;;3.53;1.10;;;21.50;99.90;;;;;;4922341;29;20754;-46
2022/06/16 07:40:15;;;;;;;2.30;1.37;;;21.60;99.90;;;;;;4925601;29;20242;-46
2022/06/16 07:42:44;;;;;;;3.37;1.23;;;21.70;99.90;;;;;;4924477;29;20269;-45
2022/06/16 07:45:14;;;;;;;3.03;1.03;;;22.10;99.90;;;;;;4925799;29;20243;-46
2022/06/16 07:47:43;;;;;;;2.67;1.10;;;22.40;99.90;;;;;;4926588;29;20234;-46
2022/06/16 07:50:12;;;;;;;2.63;1.00;;;22.30;99.90;;;;;;4928958;29;20655;-46
2022/06/16 07:52:40;;;;;;;3.63;1.10;;;22.10;99.90;;;;;;4931026;28;20243;-46
2022/06/16 07:55:10;;;;;;;3.50;1.00;;;21.80;99.90;;;;;;4934845;29;20242;-48
2022/06/16 07:57:42;;;;;;;3.00;1.00;;;22.00;99.90;;;;;;4930739;29;20603;-47
2022/06/16 08:00:12;;;;;;;4.37;1.13;;;22.50;99.90;;;;;;4932296;29;20664;-47
2022/06/16 08:02:41;;;;;;;1.90;1.03;;;22.70;99.90;;;;;;4928771;29;20242;-48
2022/06/16 08:05:11;;;;;;;2.43;1.10;;;22.90;99.90;;;;;;4930032;29;20762;-48
2022/06/16 08:07:39;;;;;;;2.80;1.07;;;23.00;99.90;;;;;;4927082;29;21021;-47
2022/06/16 08:10:11;;;;;;;4.23;1.33;;;22.70;99.90;;;;;;4928703;29;20644;-47
2022/06/16 08:12:41;;;;;;;2.67;1.43;;;22.70;99.90;;;;;;4927979;29;20227;-46
2022/06/16 08:15:10;;;;;;;3.43;1.20;;;22.70;99.90;;;;;;4928889;29;20323;-47
2022/06/16 08:17:45;;;;;;;3.20;1.30;;;23.00;99.90;;;;;;4926200;29;20238;-46
2022/06/16 08:20:14;;;;;;;4.03;1.13;;;23.30;99.90;;;;;;4929104;29;20595;-47
2022/06/16 08:22:43;;;;;;;2.10;1.10;;;23.30;99.90;;;;;;4930440;29;20243;-46
2022/06/16 08:25:13;;;;;;;2.50;1.10;;;23.50;99.90;;;;;;4928040;29;20243;-49
2022/06/16 08:27:45;;;;;;;3.53;1.00;;;23.60;99.90;;;;;;4923528;29;21410;-48
2022/06/16 08:30:16;;;;;;;2.57;1.10;;;23.90;99.90;;;;;;4925685;29;20231;-47
2022/06/16 08:32:49;;;;;;;2.53;1.10;;;23.50;99.90;;;;;;4925985;28;20244;-46
2022/06/16 08:35:17;;;;;;;1.97;0.90;;;23.70;99.90;;;;;;4928260;29;20703;-46
2022/06/16 08:37:45;;;;;;;4.73;1.33;;;23.80;99.90;;;;;;4924701;29;20370;-49
2022/06/16 08:40:16;;;;;;;3.00;1.20;;;23.80;99.90;;;;;;4926851;29;20318;-47
2022/06/16 08:42:51;;;;;;;3.33;1.00;;;23.90;99.90;;;;;;4928419;29;20999;-47
2022/06/16 08:45:33;;;;;;;2.30;1.00;;;23.90;99.90;;;;;;4927327;29;20282;-47
2022/06/16 08:48:18;;;;;;;2.43;1.00;;;24.10;99.90;;;;;;4925119;29;20707;-47
2022/06/16 08:50:51;;;;;;;1.80;0.87;;;24.20;99.90;;;;;;4928231;29;20749;-47
2022/06/16 08:53:35;;;;;;;1.87;1.07;;;23.80;99.90;;;;;;4928144;29;20235;-48
2022/06/16 08:56:06;;;;;;;5.17;1.20;;;24.20;99.90;;;;;;4930193;29;21075;-49
2022/06/16 08:58:43;;;;;;;1.80;0.80;;;24.50;99.90;;;;;;4923740;29;20236;-47
2022/06/16 09:01:25;;;;;;;2.47;1.10;;;24.80;99.90;;;;;;4928901;28;20742;-48
2022/06/16 09:03:58;;;;;;;1.80;0.90;;;25.20;99.90;;;;;;4930418;29;20716;-47
2022/06/16 09:06:40;;;;;;;2.27;0.97;;;25.60;99.90;;;;;;4933676;29;20239;-47
2022/06/16 09:12:16;;;;;;;1.90;1.00;;;25.90;99.90;;;;;;4925011;29;20241;-47
2022/06/16 09:17:47;;;;;;;3.80;1.20;;;25.30;99.90;;;;;;4924234;29;20262;-45
2022/06/16 09:20:34;;;;;;;1.67;0.90;;;25.00;99.90;;;;;;4926601;29;20237;-46
2022/06/16 09:23:33;;;;;;;3.23;1.10;;;25.60;99.90;;;;;;4933224;29;20260;-47
2022/06/16 09:26:13;;;;;;;3.47;1.10;;;25.90;99.90;;;;;;4931969;29;20256;-48
2022/06/16 09:28:47;;;;;;;2.47;0.90;;;25.80;99.90;;;;;;4928340;29;20328;-46
2022/06/16 09:31:22;;;;;;;3.03;1.20;;;25.70;99.90;;;;;;4932033;29;20256;-47
2022/06/16 09:33:58;;;;;;;2.73;1.00;;;25.70;99.90;;;;;;4930812;29;20281;-46
2022/06/16 09:36:33;;;;;;;2.57;1.03;;;25.60;99.90;;;;;;4931888;28;20240;-46
2022/06/16 09:39:11;;;;;;;2.30;1.10;;;25.70;99.90;;;;;;4926385;29;20216;-45
2022/06/16 09:44:59;;;;;;;3.50;1.20;;;25.90;99.90;;;;;;4933727;29;20252;-46
2022/06/16 09:47:34;;;;;;;4.00;1.03;;;25.70;99.90;;;;;;4927652;29;20243;-48
2022/06/16 09:50:08;;;;;;;2.53;1.00;;;26.00;99.90;;;;;;4929430;29;20233;-48
2022/06/16 09:52:42;;;;;;;3.97;1.20;;;26.50;99.90;;;;;;4930098;29;20237;-48
2022/06/16 09:55:19;;;;;;;2.63;1.00;;;26.30;99.90;;;;;;4932184;29;20247;-48
2022/06/16 09:57:50;;;;;;;2.03;1.00;;;25.40;99.90;;;;;;4926914;29;20246;-47
2022/06/16 10:00:21;;;;;;;1.63;0.90;;;24.60;99.90;;;;;;4930025;29;20237;-46
2022/06/16 10:02:53;;;;;;;1.70;1.20;;;24.30;99.90;;;;;;4927069;29;20666;-49
2022/06/16 10:05:35;;;;;;;2.30;1.10;;;24.90;99.90;;;;;;4927876;29;20253;-48
2022/06/16 10:08:07;;;;;;;2.50;1.37;;;25.60;99.90;;;;;;4923911;29;21047;-46
2022/06/16 10:10:45;;;;;;;2.60;1.30;;;25.70;99.90;;;;;;4926557;29;20241;-49
2022/06/16 10:13:20;;;;;;;2.30;1.17;;;25.30;99.90;;;;;;4925180;29;20699;-48
2022/06/16 10:15:52;;;;;;;2.93;1.10;;;25.20;99.90;;;;;;4927082;29;20249;-46
2022/06/16 10:18:22;;;;;;;3.77;1.23;;;25.20;99.90;;;;;;4923528;29;20243;-48
2022/06/16 10:20:50;;;;;;;1.87;1.00;;;25.40;99.90;;;;;;4926222;29;20246;-46
2022/06/16 10:23:22;;;;;;;2.50;0.90;;;26.10;99.90;;;;;;4925475;29;20242;-46
2022/06/16 10:25:55;;;;;;;3.97;1.10;;;26.50;99.90;;;;;;4927065;29;20242;-48
2022/06/16 10:28:28;;;;;;;3.17;1.07;;;26.20;99.90;;;;;;4923251;29;20246;-46
2022/06/16 10:30:57;;;;;;;1.50;0.93;;;25.60;99.90;;;;;;4925901;29;20223;-46
2022/06/16 10:33:28;;;;;;;3.43;1.10;;;26.20;99.90;;;;;;4925336;29;20231;-48
2022/06/16 10:36:01;;;;;;;3.33;1.13;;;26.90;99.90;;;;;;4926390;29;20228;-46
2022/06/16 10:38:32;;;;;;;3.07;0.90;;;27.50;99.70;;;;;;4923299;29;20250;-46
2022/06/16 10:41:04;;;;;;;4.00;1.17;;;27.50;98.40;;;;;;4925261;29;20234;-46
2022/06/16 10:43:42;;;;;;;2.30;1.00;;;27.00;98.50;;;;;;4925957;29;20230;-47
2022/06/16 10:46:14;;;;;;;3.10;1.03;;;26.70;99.00;;;;;;4931763;29;20239;-47
2022/06/16 10:48:50;;;;;;;3.20;0.83;;;26.70;98.60;;;;;;4935040;29;20722;-47
2022/06/16 10:51:21;;;;;;;2.60;1.00;;;27.30;99.50;;;;;;4934410;28;20711;-47
2022/06/16 10:54:02;;;;;;;2.50;1.07;;;26.90;99.20;;;;;;4935853;29;20227;-46
2022/06/16 10:56:31;;;;;;;2.00;0.87;;;26.10;99.10;;;;;;4935816;29;20715;-46
2022/06/16 10:59:02;;;;;;;2.60;1.03;;;25.60;99.90;;;;;;4935865;29;20225;-47
2022/06/16 11:01:36;;;;;;;2.77;1.00;;;25.90;99.90;;;;;;4933959;28;20243;-46
2022/06/16 11:04:08;;;;;;;2.57;1.00;;;26.10;99.90;;;;;;4935221;29;20241;-47
2022/06/16 11:06:40;;;;;;;2.40;1.10;;;26.30;99.40;;;;;;4935933;29;20234;-46
2022/06/16 11:09:08;;;;;;;1.90;1.10;;;26.60;99.40;;;;;;4935567;29;20342;-46
2022/06/16 11:11:42;;;;;;;2.27;1.03;;;26.60;98.90;;;;;;4933110;29;20226;-47
2022/06/16 11:14:14;;;;;;;4.00;1.00;;;25.80;99.80;;;;;;4935048;29;20227;-47
2022/06/16 11:16:49;;;;;;;4.23;1.20;;;25.90;99.90;;;;;;4925441;29;20234;-46
2022/06/16 11:19:30;;;;;;;3.03;1.00;;;26.60;99.50;;;;;;4924436;28;20241;-47
2022/06/16 11:21:58;;;;;;;3.33;1.00;;;26.90;99.20;;;;;;4923791;29;20726;-46
2022/06/16 11:24:29;;;;;;;2.70;1.00;;;26.40;99.50;;;;;;4927220;29;20238;-48
2022/06/16 11:27:10;;;;;;;2.70;1.00;;;26.40;99.80;;;;;;4922541;29;20707;-47
2022/06/16 11:29:40;;;;;;;1.47;0.70;;;26.30;99.90;;;;;;4926002;29;20707;-46
2022/06/16 11:32:17;;;;;;;2.70;1.10;;;26.60;99.90;;;;;;4924262;29;20814;-46
2022/06/16 11:34:48;;;;;;;2.77;1.03;;;27.50;99.50;;;;;;4924518;29;20242;-46
2022/06/16 11:37:41;;;;;;;2.53;0.97;;;27.40;98.10;;;;;;4921970;29;20797;-45
2022/06/16 11:40:31;;;;;;;2.90;0.97;;;26.60;98.10;;;;;;4925949;29;20722;-48
2022/06/16 11:43:14;;;;;;;3.10;1.13;;;26.40;99.20;;;;;;4925393;28;20731;-46
2022/06/16 11:45:46;;;;;;;3.90;1.13;;;26.10;99.70;;;;;;4925029;29;20230;-47
2022/06/16 11:48:22;;;;;;;3.67;1.30;;;26.20;99.10;;;;;;4923982;29;20235;-45
2022/06/16 11:50:59;;;;;;;3.70;1.00;;;26.50;99.00;;;;;;4927958;29;20237;-47
2022/06/16 11:53:39;;;;;;;4.27;0.93;;;26.50;98.70;;;;;;4926087;29;20314;-45
2022/06/16 11:56:21;;;;;;;3.07;1.00;;;25.90;99.10;;;;;;4921180;29;20314;-46
2022/06/16 11:59:07;;;;;;;2.20;0.90;;;25.40;99.90;;;;;;4925942;29;20238;-44
2022/06/16 12:01:42;;;;;;;2.67;0.87;;;26.00;99.80;;;;;;4923024;29;20325;-44
2022/06/16 12:04:51;;;;;;;1.43;0.90;;;26.60;99.80;;;;;;4926099;29;20309;-47
2022/06/16 12:07:36;;;;;;;2.87;1.00;;;26.40;99.90;;;;;;4911573;29;20310;-45
2022/06/16 12:10:14;;;;;;;1.70;0.90;;;26.80;99.90;;;;;;4925202;29;20688;-46
2022/06/16 12:12:47;;;;;;;2.33;0.93;;;26.50;99.90;;;;;;4924566;29;20317;-46
2022/06/16 12:15:31;;;;;;;2.40;1.23;;;25.70;99.90;;;;;;4928027;29;20901;-44
2022/06/16 12:18:17;;;;;;;3.00;0.90;;;24.80;99.90;;;;;;4922846;29;20689;-45
2022/06/16 12:20:58;;;;;;;1.83;0.70;;;24.40;99.90;;;;;;4925119;29;20265;-45
2022/06/16 12:23:34;;;;;;;2.83;1.20;;;24.40;99.90;;;;;;4923111;29;20786;-46
2022/06/16 12:26:08;;;;;;;2.80;1.10;;;24.60;99.90;;;;;;4921797;29;21047;-45
2022/06/16 12:28:56;;;;;;;3.60;1.10;;;24.20;99.90;;;;;;4927743;29;20297;-44
2022/06/16 12:31:33;;;;;;;3.10;1.20;;;23.60;99.90;;;;;;4922334;29;20372;-44
2022/06/16 12:34:08;;;;;;;3.70;1.00;;;23.90;99.90;;;;;;4930313;29;20838;-47
2022/06/16 12:36:39;;;;;;;2.07;0.87;;;23.60;99.90;;;;;;4926523;29;21123;-44
2022/06/16 12:39:12;;;;;;;2.57;0.87;;;23.70;99.90;;;;;;4928265;29;20739;-44
2022/06/16 12:41:42;;;;;;;4.93;1.23;;;24.00;99.90;;;;;;4927367;29;20823;-46
2022/06/16 12:44:16;;;;;;;3.47;0.93;;;23.90;99.90;;;;;;4928094;29;20244;-47
2022/06/16 12:46:47;;;;;;;2.63;1.07;;;23.60;99.90;;;;;;4926158;29;20224;-48
2022/06/16 12:49:22;;;;;;;4.03;1.10;;;23.80;99.90;;;;;;4928182;29;21550;-46
2022/06/16 12:52:02;;;;;;;2.87;0.90;;;23.80;99.90;;;;;;4927106;29;20225;-46
2022/06/16 12:54:37;;;;;;;2.97;1.10;;;23.80;99.90;;;;;;4928504;29;20233;-48
2022/06/16 12:57:09;;;;;;;2.57;1.03;;;23.60;99.90;;;;;;4924759;29;20347;-46
2022/06/16 12:59:42;;;;;;;2.40;1.00;;;23.40;99.90;;;;;;4927038;29;20317;-46
2022/06/16 13:02:15;;;;;;;2.43;1.20;;;23.00;99.90;;;;;;4925556;29;20232;-47
2022/06/16 13:04:45;;;;;;;3.35;1.15;;;22.90;99.90;;;;;;4926579;29;20460;-46
2022/06/16 13:07:18;;;;;;;2.77;1.07;;;23.10;99.90;;;;;;4925083;29;20729;-47
2022/06/16 13:09:48;;;;;;;2.47;0.90;;;23.00;99.90;;;;;;4928415;29;20261;-45
2022/06/16 13:12:21;;;;;;;5.13;1.13;;;22.80;99.90;;;;;;4926180;29;20726;-48
2022/06/16 13:14:55;;;;;;;3.03;1.10;;;22.80;99.90;;;;;;4927519;29;20333;-47
2022/06/16 13:17:27;;;;;;;2.53;0.90;;;22.70;99.90;;;;;;4924576;29;20326;-46
2022/06/16 13:19:59;;;;;;;2.23;0.93;;;22.70;99.90;;;;;;4927386;29;20300;-46
2022/06/16 13:22:31;;;;;;;2.50;0.87;;;22.30;99.90;;;;;;4909030;29;20244;-47
2022/06/16 13:25:06;;;;;;;2.27;0.80;;;22.00;99.90;;;;;;4927493;29;20232;-46
2022/06/16 13:27:42;;;;;;;2.93;0.90;;;21.90;99.90;;;;;;4924022;29;20235;-46
2022/06/16 13:30:23;;;;;;;3.23;0.93;;;22.10;99.90;;;;;;4927420;29;20724;-46
2022/06/16 13:33:19;;;;;;;3.70;0.97;;;21.80;99.90;;;;;;4924636;29;20322;-46
2022/06/16 13:35:51;;;;;;;1.77;0.83;;;21.60;99.90;;;;;;4925267;29;20333;-46
2022/06/16 13:38:25;;;;;;;0.97;0.77;;;21.40;99.90;;;;;;4927106;29;20728;-45
2022/06/16 13:41:27;;;;;;;2.20;0.70;;;21.50;99.90;;;;;;4927239;29;20228;-46
2022/06/16 13:44:20;;;;;;;1.50;0.60;;;21.50;99.90;;;;;;4926990;29;20726;-46
2022/06/16 13:47:18;;;;;;;1.07;0.60;;;21.60;99.90;;;;;;4922900;29;20231;-46
2022/06/16 13:49:59;;;;;;;1.67;0.80;;;21.80;99.90;;;;;;4929837;29;21027;-47
2022/06/16 13:52:30;;;;;;;2.20;0.80;;;21.80;99.90;;;;;;4927490;29;20724;-47
2022/06/16 13:55:21;;;;;;;5.27;1.00;;;21.90;99.90;;;;;;4928496;29;20258;-47